Airport View

Enter AWOS ICAO identifier for current METAR.

ex. KFNL

KCQX 191752Z AUTO 08004KT 10SM OVC007 18/15 A2990 RMK AO2 SLP125 T01780150 10189 20150 50001

19 Jun 2019 18:46

Frequency: 135.875

Phone: 508-945-5034

Other Area AWOS: KHYA - KFMH - KPVC - KACK

TAF KHYA 191739Z 1918/2018 05007KT P6SM BKN015 TEMPO 1918/1920 BKN008 FM192000 13006KT P6SM BKN008 FM200000 13007KT 4SM BR VCSH OVC003 FM200800 14005KT 1SM BR VCSH OVC003 FM201000 12004KT 3/4SM BR VCSH OVC003 FM201500 14006KT 3SM BR VCSH OVC005